Terminal Aerodrome Forecast
Issued by NWS

Home | Current Version | Previous Version | Text Only | Print | Product List | Glossary On
Versions: 1 2 3 4 5 6 7 8 9 10 11 12 13 14 15 16 17
000
FTUS43 KICT 061740
TAFSLN
TAF
KSLN 061740Z 0618/0718 33013KT P6SM SKC
     FM062200 35007KT P6SM BKN200
     FM070000 VRB03KT P6SM OVC150
     FM070200 VRB03KT P6SM OVC100=

USA.gov is the U.S. government's official web portal to all federal, state and local government web resources and services.